sensor_id;sensor_type;location;lat;lon;timestamp;pressure;altitude;pressure_sealevel;temperature;humidity
55679;BME280;41573;51.446;-2.018;2023-02-15T11:24:59;97709.06;;;10.51;100.00
55679;BME280;41573;51.446;-2.018;2023-02-15T11:27:30;97749.72;;;10.62;100.00
55679;BME280;41573;51.446;-2.018;2023-02-15T11:30:01;97784.31;;;10.70;100.00
55679;BME280;41573;51.446;-2.018;2023-02-15T11:32:33;97828.06;;;10.76;100.00
55679;BME280;41573;51.446;-2.018;2023-02-15T11:35:05;97880.16;;;10.78;100.00
55679;BME280;41573;51.446;-2.018;2023-02-15T11:37:44;97907.31;;;10.82;100.00
55679;BME280;41573;51.446;-2.018;2023-02-15T11:40:20;97948.13;;;10.91;100.00
55679;BME280;41573;51.446;-2.018;2023-02-15T11:42:49;97998.72;;;10.91;100.00
55679;BME280;41573;51.446;-2.018;2023-02-15T11:45:21;98006.09;;;11.05;100.00
55679;BME280;41573;51.446;-2.018;2023-02-15T11:47:48;98044.97;;;11.16;100.00
55679;BME280;41573;51.446;-2.018;2023-02-15T11:50:16;98071.47;;;11.26;100.00
55679;BME280;41573;51.446;-2.018;2023-02-15T11:52:44;98114.50;;;11.39;100.00
55679;BME280;41573;51.446;-2.018;2023-02-15T12:02:59;98256.97;;;11.71;100.00
55679;BME280;41573;51.446;-2.018;2023-02-15T12:05:31;98284.00;;;11.94;100.00
55679;BME280;41573;51.446;-2.018;2023-02-15T12:15:38;98394.06;;;12.22;100.00
55679;BME280;41573;51.446;-2.018;2023-02-15T12:18:33;98423.44;;;12.31;100.00
55679;BME280;41573;51.446;-2.018;2023-02-15T12:21:34;98463.53;;;12.39;100.00
55679;BME280;41573;51.446;-2.018;2023-02-15T12:24:43;98520.53;;;12.30;100.00
55679;BME280;41573;51.446;-2.018;2023-02-15T12:31:20;98561.31;;;12.22;100.00
55679;BME280;41573;51.446;-2.018;2023-02-15T12:34:20;98551.88;;;12.28;100.00
55679;BME280;41573;51.446;-2.018;2023-02-15T12:36:49;98572.31;;;12.37;100.00
55679;BME280;41573;51.446;-2.018;2023-02-15T12:39:24;98578.63;;;12.36;100.00
55679;BME280;41573;51.446;-2.018;2023-02-15T12:49:42;98604.25;;;12.65;100.00
55679;BME280;41573;51.446;-2.018;2023-02-15T12:54:43;98631.56;;;12.76;100.00
55679;BME280;41573;51.446;-2.018;2023-02-15T12:57:29;98636.28;;;12.83;100.00
55679;BME280;41573;51.446;-2.018;2023-02-15T12:59:57;98653.13;;;12.83;100.00
55679;BME280;41573;51.446;-2.018;2023-02-15T13:02:43;98661.47;;;12.80;100.00
55679;BME280;41573;51.446;-2.018;2023-02-15T13:07:49;98680.97;;;12.99;100.00
55679;BME280;41573;51.446;-2.018;2023-02-15T13:10:28;98681.22;;;13.05;100.00
55679;BME280;41573;51.446;-2.018;2023-02-15T13:12:56;98682.44;;;13.11;100.00
55679;BME280;41573;51.446;-2.018;2023-02-15T13:15:37;98718.69;;;13.14;100.00
55679;BME280;41573;51.446;-2.018;2023-02-15T13:18:43;98725.94;;;13.21;100.00
55679;BME280;41573;51.446;-2.018;2023-02-15T13:21:13;98754.66;;;13.19;100.00
55679;BME280;41573;51.446;-2.018;2023-02-15T13:23:43;98766.97;;;13.12;100.00
55679;BME280;41573;51.446;-2.018;2023-02-15T13:26:15;98796.63;;;13.09;100.00
55679;BME280;41573;51.446;-2.018;2023-02-15T13:28:46;98784.88;;;13.20;100.00
55679;BME280;41573;51.446;-2.018;2023-02-15T13:31:19;98815.03;;;13.30;100.00
55679;BME280;41573;51.446;-2.018;2023-02-15T13:37:13;98817.03;;;13.28;100.00
55679;BME280;41573;51.446;-2.018;2023-02-15T13:42:39;98833.47;;;13.15;100.00
55679;BME280;41573;51.446;-2.018;2023-02-15T13:48:02;98837.59;;;13.27;100.00
55679;BME280;41573;51.446;-2.018;2023-02-15T14:13:32;98820.00;;;13.07;100.00
55679;BME280;41573;51.446;-2.018;2023-02-15T14:16:23;98838.41;;;12.92;100.00
55679;BME280;41573;51.446;-2.018;2023-02-15T14:19:18;98828.56;;;12.92;100.00
55679;BME280;41573;51.446;-2.018;2023-02-15T14:21:59;98845.47;;;12.83;100.00
55679;BME280;41573;51.446;-2.018;2023-02-15T14:27:18;98842.66;;;12.85;100.00
55679;BME280;41573;51.446;-2.018;2023-02-15T14:29:50;98830.16;;;12.85;100.00
55679;BME280;41573;51.446;-2.018;2023-02-15T14:32:30;98833.91;;;12.92;100.00
55679;BME280;41573;51.446;-2.018;2023-02-15T14:35:00;98822.38;;;12.92;100.00
55679;BME280;41573;51.446;-2.018;2023-02-15T14:40:05;98812.97;;;13.06;100.00
55679;BME280;41573;51.446;-2.018;2023-02-15T14:43:00;98810.00;;;13.09;100.00
55679;BME280;41573;51.446;-2.018;2023-02-15T14:45:50;98810.09;;;13.17;100.00
55679;BME280;41573;51.446;-2.018;2023-02-15T14:51:01;98820.78;;;12.99;100.00
55679;BME280;41573;51.446;-2.018;2023-02-15T14:56:21;98813.72;;;12.80;100.00
55679;BME280;41573;51.446;-2.018;2023-02-15T14:58:57;98800.06;;;12.83;100.00
55679;BME280;41573;51.446;-2.018;2023-02-15T15:01:32;98781.00;;;12.78;100.00
55679;BME280;41573;51.446;-2.018;2023-02-15T15:04:00;98777.47;;;12.77;100.00
55679;BME280;41573;51.446;-2.018;2023-02-15T15:06:33;98774.25;;;12.74;100.00
55679;BME280;41573;51.446;-2.018;2023-02-15T15:11:46;98764.41;;;12.56;100.00
55679;BME280;41573;51.446;-2.018;2023-02-15T15:16:56;98752.91;;;12.46;100.00
55679;BME280;41573;51.446;-2.018;2023-02-15T15:22:21;98734.44;;;12.35;100.00
55679;BME280;41573;51.446;-2.018;2023-02-15T15:25:00;98726.63;;;12.23;100.00
55679;BME280;41573;51.446;-2.018;2023-02-15T15:27:51;98713.75;;;12.19;100.00
55679;BME280;41573;51.446;-2.018;2023-02-15T15:44:30;98522.50;;;11.92;100.00
55679;BME280;41573;51.446;-2.018;2023-02-15T15:50:42;98423.28;;;11.70;100.00
55679;BME280;41573;51.446;-2.018;2023-02-15T15:53:19;98391.81;;;11.73;100.00
55679;BME280;41573;51.446;-2.018;2023-02-15T15:55:46;98354.88;;;11.61;100.00
55679;BME280;41573;51.446;-2.018;2023-02-15T15:58:16;98333.22;;;11.64;100.00
55679;BME280;41573;51.446;-2.018;2023-02-15T16:00:43;98304.28;;;11.69;100.00
55679;BME280;41573;51.446;-2.018;2023-02-15T16:03:25;98287.09;;;11.63;100.00
55679;BME280;41573;51.446;-2.018;2023-02-15T16:05:51;98252.59;;;11.62;100.00
55679;BME280;41573;51.446;-2.018;2023-02-15T16:10:51;98230.94;;;11.65;100.00
55679;BME280;41573;51.446;-2.018;2023-02-15T16:13:17;98226.09;;;11.60;100.00
55679;BME280;41573;51.446;-2.018;2023-02-15T16:15:47;98214.53;;;11.51;100.00
55679;BME280;41573;51.446;-2.018;2023-02-15T16:18:18;98205.53;;;11.52;100.00
55679;BME280;41573;51.446;-2.018;2023-02-15T16:27:28;98116.59;;;11.01;100.00
55679;BME280;41573;51.446;-2.018;2023-02-15T16:30:21;98077.09;;;10.70;100.00
55679;BME280;41573;51.446;-2.018;2023-02-15T16:32:46;98055.78;;;10.44;100.00
55679;BME280;41573;51.446;-2.018;2023-02-15T16:35:18;98026.81;;;10.23;100.00
55679;BME280;41573;51.446;-2.018;2023-02-15T16:37:45;97997.53;;;10.05;100.00
55679;BME280;41573;51.446;-2.018;2023-02-15T16:42:54;97930.06;;;9.79;100.00
55679;BME280;41573;51.446;-2.018;2023-02-15T16:45:32;97888.44;;;9.70;100.00
55679;BME280;41573;51.446;-2.018;2023-02-15T16:48:06;97877.63;;;9.54;100.00
55679;BME280;41573;51.446;-2.018;2023-02-15T16:50:36;97872.59;;;9.42;100.00
55679;BME280;41573;51.446;-2.018;2023-02-15T16:53:16;97875.31;;;9.32;100.00
55679;BME280;41573;51.446;-2.018;2023-02-15T16:55:50;97892.28;;;9.22;100.00
